Travis AFB

Current Flights

Departures
Number Departure To Airline
Arrivals
Number Arrival From Airline
Info
Name: Travis AFB
Identifier:  SUU/KSUU
Local Time:  19. Jun 00:00
City
Flights per Day
3 flights
Distance: 3,604km (2,239mi)
Punctuality
75% (0 flights per day delayed)
Delay Average: 16 minutes
Current Weather
 16 C (Humidity: 82%)
  25kt (46km/h / 28mph) from 230°
31 knots Gusts

  16km (10 mi.)
 
 METAR KSUU 190558Z AUTO 23025G31KT 10SM CLR 16/13 A2983 RMK AO2 PK WND 23031/54 SLP108 T01600125 10319 20160 50006

Current Delays

Departures
N/A
Arrivals
N/A

Destinations

Top Destinations
Airport Flights
per week
Seats
per week
  Honolulu (HNL) 6 - 0 0
  Anchorage (EDF) 3 52 0 7
  Cincinnati (CVG) 3 524 0 74
  Tokyo (OKO) 2 - 0 0
  Sacramento (MHR) 1 - 0 0
  Sacramento (MCC) 0 - 0 0
  Anchorage (MRI) 0 - 0 0
  Los Angeles (LAX) 0 - 0 0
  Chicago (ORD) 0 - 0 0
  Okinawa (DNA) 0 - 0 0
  Salt Lake City (SLC) 0 95 0 13
  Hahn (HHN) 0 - 0 0

Airlines & Planes

Top Airlines
Airline Flights
per Day
Seats
per Day
  Atlas Air 1 -
  Kalitta Air 1 -
  National Airlines 0 -
  American Airlines 0 90
  Air Transport International 0 0
  Delta Air Lines 0 8
  Allegiant Air 0 10
Top Plane Types
Model Flights Seats
Boeing B747-400 2.7/day - 0
Boeing B767-300 0.4/day 89/day 89.96666666666667
Boeing B757-200 0.2/day - -0.16666666666666666
Airbus A319 0.1/day 18/day 18.8
Boeing B747-200 0.0/day - 0